createdAt,value
2023-02-22T00:01:02.170Z,73.00
2023-02-22T00:03:32.599Z,73.24
2023-02-22T00:06:05.177Z,73.14
2023-02-22T00:08:34.299Z,73.08
2023-02-22T00:11:03.270Z,73.26
2023-02-22T00:13:30.462Z,72.93
2023-02-22T00:15:58.100Z,73.06
2023-02-22T00:18:28.056Z,72.97
2023-02-22T00:21:02.191Z,72.86
2023-02-22T00:23:30.605Z,72.94
2023-02-22T00:25:59.655Z,73.20
2023-02-22T00:28:26.561Z,73.24
2023-02-22T00:30:55.012Z,73.09
2023-02-22T00:33:22.364Z,72.83
2023-02-22T00:35:49.345Z,73.26
2023-02-22T00:38:18.082Z,73.40
2023-02-22T00:40:45.553Z,73.35
2023-02-22T00:43:12.518Z,73.19
2023-02-22T00:45:41.038Z,72.77
2023-02-22T00:48:08.670Z,73.10
2023-02-22T00:50:35.820Z,72.68
2023-02-22T00:53:06.303Z,72.76
2023-02-22T00:55:35.245Z,72.66
2023-02-22T00:58:02.322Z,72.59
2023-02-22T01:00:33.650Z,72.74
2023-02-22T01:03:00.367Z,73.12
2023-02-22T01:05:29.993Z,73.11
2023-02-22T01:07:57.879Z,72.97
2023-02-22T01:10:27.055Z,73.10
2023-02-22T01:12:54.575Z,73.09
2023-02-22T01:15:22.880Z,73.69
2023-02-22T01:17:51.399Z,73.57
2023-02-22T01:20:18.837Z,73.86
2023-02-22T01:22:47.558Z,73.97
2023-02-22T01:25:18.613Z,74.07
2023-02-22T01:27:45.288Z,74.31
2023-02-22T01:30:13.915Z,74.41
2023-02-22T01:32:42.157Z,74.50
2023-02-22T01:35:13.763Z,74.49
2023-02-22T01:37:40.999Z,75.20
2023-02-22T01:40:10.092Z,74.58
2023-02-22T01:42:37.283Z,73.95
2023-02-22T01:45:35.334Z,73.78
2023-02-22T01:48:30.149Z,73.97
2023-02-22T01:51:18.796Z,73.88
2023-02-22T01:53:55.970Z,73.99
2023-02-22T01:56:24.027Z,74.08
2023-02-22T01:58:59.582Z,73.91
2023-02-22T02:01:26.500Z,74.02
2023-02-22T02:03:58.323Z,73.83
2023-02-22T02:06:25.560Z,74.06
2023-02-22T02:09:05.004Z,73.90
2023-02-22T02:11:32.615Z,74.02
2023-02-22T02:14:00.082Z,74.04
2023-02-22T02:16:46.723Z,73.71
2023-02-22T02:19:23.863Z,73.99
2023-02-22T02:22:21.428Z,73.99
2023-02-22T02:25:24.500Z,74.49
2023-02-22T02:28:16.224Z,74.79
2023-02-22T02:31:19.609Z,75.15
2023-02-22T02:33:56.072Z,75.40
2023-02-22T02:36:31.146Z,75.62
2023-02-22T02:39:07.195Z,75.78
2023-02-22T02:41:42.031Z,76.16
2023-02-22T02:44:15.903Z,77.41
2023-02-22T02:46:53.329Z,77.15
2023-02-22T02:49:25.495Z,76.68
2023-02-22T02:51:54.144Z,77.02
2023-02-22T02:54:22.351Z,76.86
2023-02-22T02:56:52.267Z,77.36
2023-02-22T02:59:26.315Z,77.54
2023-02-22T03:02:16.226Z,77.34
2023-02-22T03:05:16.410Z,77.80
2023-02-22T03:08:03.488Z,77.83
2023-02-22T03:10:50.503Z,77.83
2023-02-22T03:13:26.113Z,77.94
2023-02-22T03:16:15.221Z,77.98
2023-02-22T03:18:51.918Z,77.89
2023-02-22T03:21:24.511Z,78.09
2023-02-22T03:24:14.926Z,77.84
2023-02-22T03:26:53.572Z,77.64
2023-02-22T03:29:21.953Z,77.95
2023-02-22T03:31:52.382Z,77.80
2023-02-22T03:34:26.651Z,77.95
2023-02-22T03:37:01.183Z,77.88
2023-02-22T03:39:31.399Z,78.16
2023-02-22T03:42:10.164Z,78.28
2023-02-22T03:44:38.797Z,77.90
2023-02-22T03:47:09.950Z,78.13
2023-02-22T03:49:40.972Z,78.13
2023-02-22T03:52:08.074Z,78.09
2023-02-22T03:54:35.969Z,78.13
2023-02-22T03:57:14.348Z,78.08
2023-02-22T03:59:43.191Z,78.06
2023-02-22T04:02:10.981Z,77.96
2023-02-22T04:04:37.962Z,78.49
2023-02-22T04:07:04.869Z,77.98
2023-02-22T04:09:32.854Z,78.16
2023-02-22T04:11:59.825Z,78.42
2023-02-22T04:14:29.543Z,78.34
2023-02-22T04:16:57.534Z,78.50
2023-02-22T04:19:24.232Z,78.37
2023-02-22T04:21:51.921Z,78.35
2023-02-22T04:24:22.433Z,78.47
2023-02-22T04:26:50.396Z,78.32
2023-02-22T04:29:17.658Z,78.51
2023-02-22T04:31:45.206Z,78.99
2023-02-22T04:34:12.083Z,79.07
2023-02-22T04:36:42.514Z,78.67
2023-02-22T04:39:09.779Z,78.60
2023-02-22T04:41:36.429Z,78.76
2023-02-22T04:44:03.284Z,79.05
2023-02-22T04:46:31.690Z,79.20
2023-02-22T04:49:01.551Z,79.05
2023-02-22T04:51:31.073Z,78.91
2023-02-22T04:54:01.082Z,78.92
2023-02-22T04:56:28.221Z,78.94
2023-02-22T04:58:54.908Z,79.16
2023-02-22T05:01:21.630Z,79.08
2023-02-22T05:03:48.505Z,79.29
2023-02-22T05:06:18.510Z,79.57
2023-02-22T05:08:45.156Z,79.17
2023-02-22T05:11:11.823Z,79.02
2023-02-22T05:13:38.456Z,79.91
2023-02-22T05:16:05.763Z,80.49
2023-02-22T05:18:32.482Z,79.61
2023-02-22T05:20:59.109Z,79.58
2023-02-22T05:23:25.786Z,79.35
2023-02-22T05:25:52.522Z,79.05
2023-02-22T05:28:19.221Z,79.19
2023-02-22T05:30:46.319Z,79.30
2023-02-22T05:33:13.295Z,79.52
2023-02-22T05:35:40.221Z,79.22
2023-02-22T05:38:07.638Z,79.31
2023-02-22T05:40:34.802Z,78.89
2023-02-22T05:43:02.294Z,78.82
2023-02-22T05:45:29.595Z,78.98
2023-02-22T05:47:56.258Z,78.83
2023-02-22T05:50:24.580Z,78.77
2023-02-22T05:52:52.012Z,79.37
2023-02-22T05:55:20.775Z,79.66
2023-02-22T05:57:47.444Z,80.54
2023-02-22T06:00:17.771Z,80.10
2023-02-22T06:02:44.428Z,79.96
2023-02-22T06:05:11.345Z,79.72
2023-02-22T06:07:38.170Z,79.44
2023-02-22T06:10:05.443Z,79.27
2023-02-22T06:12:32.046Z,79.37
2023-02-22T06:14:58.710Z,79.98
2023-02-22T06:17:25.340Z,79.57
2023-02-22T06:19:51.991Z,79.81
2023-02-22T06:22:19.764Z,79.42
2023-02-22T06:24:46.442Z,79.98
2023-02-22T06:27:13.278Z,79.48
2023-02-22T06:29:40.000Z,79.52
2023-02-22T06:32:06.693Z,79.66
2023-02-22T06:34:33.446Z,79.48
2023-02-22T06:37:00.770Z,79.49
2023-02-22T06:39:27.418Z,79.15
2023-02-22T06:41:56.069Z,79.33
2023-02-22T06:44:22.775Z,79.75
2023-02-22T06:46:51.306Z,79.82
2023-02-22T06:49:19.528Z,79.75
2023-02-22T06:51:46.364Z,79.60
2023-02-22T06:54:13.042Z,79.27
2023-02-22T06:56:39.671Z,79.05
2023-02-22T06:59:06.365Z,79.11
2023-02-22T07:01:33.060Z,78.08
2023-02-22T07:03:59.806Z,79.61
2023-02-22T07:06:26.416Z,79.05
2023-02-22T07:08:53.065Z,78.21
2023-02-22T07:11:19.770Z,78.39
2023-02-22T07:13:52.532Z,78.39
2023-02-22T07:16:19.239Z,78.77
2023-02-22T07:18:46.425Z,78.08
2023-02-22T07:21:13.054Z,78.83
2023-02-22T07:23:42.705Z,78.40
2023-02-22T07:26:09.335Z,77.48
2023-02-22T07:28:36.044Z,78.01
2023-02-22T07:31:02.924Z,77.99
2023-02-22T07:33:29.612Z,77.23
2023-02-22T07:35:56.235Z,77.54
2023-02-22T07:38:22.956Z,77.25
2023-02-22T07:40:49.607Z,76.78
2023-02-22T07:43:21.429Z,76.70
2023-02-22T07:45:50.401Z,78.73
2023-02-22T07:48:18.721Z,77.94
2023-02-22T07:50:45.725Z,77.74
2023-02-22T07:53:23.579Z,77.69
2023-02-22T07:55:51.276Z,77.00
2023-02-22T07:58:20.548Z,76.71
2023-02-22T08:00:49.990Z,76.73
2023-02-22T08:03:19.285Z,77.38
2023-02-22T08:05:48.703Z,77.86
2023-02-22T08:08:18.197Z,77.46
2023-02-22T08:10:46.597Z,76.60
2023-02-22T08:13:13.409Z,76.28
2023-02-22T08:15:41.503Z,76.14
2023-02-22T08:18:10.547Z,76.01
2023-02-22T08:20:38.441Z,76.31
2023-02-22T08:23:06.801Z,76.21
2023-02-22T08:25:33.965Z,76.98
2023-02-22T08:28:03.253Z,76.61
2023-02-22T08:30:31.333Z,76.49
2023-02-22T08:32:58.615Z,76.13
2023-02-22T08:35:25.535Z,75.57
2023-02-22T08:37:55.508Z,74.50
2023-02-22T08:40:25.234Z,74.49
2023-02-22T08:42:52.222Z,74.29
2023-02-22T08:45:18.900Z,73.81
2023-02-22T08:47:45.748Z,73.47
2023-02-22T08:50:42.065Z,72.97
2023-02-22T08:53:09.695Z,73.23
2023-02-22T08:55:37.983Z,73.71
2023-02-22T08:58:06.068Z,73.48
2023-02-22T09:00:34.038Z,73.44
2023-02-22T09:03:05.436Z,72.79
2023-02-22T09:05:32.391Z,73.14
2023-02-22T09:07:59.538Z,73.50
2023-02-22T09:10:30.257Z,72.83
2023-02-22T09:12:57.476Z,72.78
2023-02-22T09:15:25.153Z,73.39
2023-02-22T09:17:58.150Z,73.61
2023-02-22T09:20:25.486Z,73.37
2023-02-22T09:22:53.241Z,72.04
2023-02-22T09:25:20.818Z,72.75
2023-02-22T09:27:52.067Z,72.86
2023-02-22T09:30:24.364Z,70.58
2023-02-22T09:32:52.922Z,71.55
2023-02-22T09:35:20.374Z,70.82
2023-02-22T09:37:47.074Z,71.33
2023-02-22T09:40:25.144Z,70.22
2023-02-22T09:43:17.065Z,69.59
2023-02-22T09:46:12.245Z,69.31
2023-02-22T09:49:05.333Z,70.46
2023-02-22T09:51:37.980Z,70.67
2023-02-22T09:54:06.815Z,69.91
2023-02-22T09:56:34.329Z,70.30
2023-02-22T09:59:04.349Z,70.49
2023-02-22T10:01:35.995Z,68.65
2023-02-22T10:04:13.111Z,68.35
2023-02-22T10:06:42.480Z,68.17
2023-02-22T10:09:09.825Z,67.99
2023-02-22T10:11:42.812Z,66.13
2023-02-22T10:14:34.905Z,65.98
2023-02-22T10:17:11.641Z,65.99
2023-02-22T10:19:48.837Z,65.78
2023-02-22T10:22:21.049Z,66.01
2023-02-22T10:25:12.995Z,66.81
2023-02-22T10:27:42.784Z,67.86
2023-02-22T10:30:41.991Z,66.43
2023-02-22T10:33:14.816Z,67.35
2023-02-22T10:35:41.993Z,66.37
2023-02-22T10:38:15.068Z,66.52
2023-02-22T10:40:44.881Z,66.73
2023-02-22T10:43:11.752Z,65.59
2023-02-22T10:45:38.916Z,65.35
2023-02-22T10:48:11.752Z,66.08
2023-02-22T10:50:41.454Z,66.21
2023-02-22T10:53:09.625Z,67.47
2023-02-22T10:55:36.682Z,67.88
2023-02-22T10:58:07.045Z,66.60
2023-02-22T11:00:40.121Z,65.79
2023-02-22T11:03:17.766Z,65.73
2023-02-22T11:05:45.011Z,64.95
2023-02-22T11:08:33.275Z,65.19
2023-02-22T11:11:26.672Z,65.85
2023-02-22T11:13:57.193Z,65.01
2023-02-22T11:16:33.101Z,64.98
2023-02-22T11:19:13.157Z,63.69
2023-02-22T11:21:39.859Z,63.39
2023-02-22T11:24:09.904Z,63.26
2023-02-22T11:26:38.660Z,63.68
2023-02-22T11:29:11.352Z,63.01
2023-02-22T11:31:43.191Z,62.40
2023-02-22T11:34:44.051Z,62.04
2023-02-22T11:37:22.464Z,61.28
2023-02-22T11:40:05.608Z,62.23
2023-02-22T11:42:32.399Z,62.84
2023-02-22T11:45:21.575Z,62.70
2023-02-22T11:47:52.672Z,64.09
2023-02-22T11:50:33.776Z,64.27
2023-02-22T11:53:50.371Z,62.60
2023-02-22T11:56:35.750Z,61.24
2023-02-22T11:59:36.740Z,63.29
2023-02-22T12:02:22.313Z,63.38
2023-02-22T12:04:59.179Z,63.17
2023-02-22T12:07:37.197Z,63.37
2023-02-22T12:10:20.968Z,62.87
2023-02-22T12:13:06.378Z,63.48
2023-02-22T12:15:56.357Z,62.93
2023-02-22T12:18:32.817Z,64.63
2023-02-22T12:21:03.320Z,64.14
2023-02-22T12:23:46.506Z,63.64
2023-02-22T12:26:20.432Z,63.24
2023-02-22T12:28:51.532Z,63.48
2023-02-22T12:31:29.508Z,63.14
2023-02-22T12:34:14.009Z,64.74
2023-02-22T12:36:47.453Z,64.72
2023-02-22T12:39:25.526Z,63.63
2023-02-22T12:41:55.517Z,62.76
2023-02-22T12:44:27.222Z,62.94
2023-02-22T12:46:56.889Z,62.71
2023-02-22T12:49:43.548Z,63.06
2023-02-22T12:52:22.074Z,63.11
2023-02-22T12:54:59.571Z,63.10
2023-02-22T12:57:30.525Z,62.76
2023-02-22T13:00:23.381Z,63.63
2023-02-22T13:03:00.849Z,63.42
2023-02-22T13:05:35.186Z,63.66
2023-02-22T13:08:23.679Z,63.43
2023-02-22T13:11:09.142Z,63.32
2023-02-22T13:13:55.625Z,63.54
2023-02-22T13:16:32.233Z,62.85
2023-02-22T13:19:40.312Z,63.85
2023-02-22T13:22:21.337Z,63.00
2023-02-22T13:24:56.742Z,61.60
2023-02-22T13:27:26.902Z,62.01
2023-02-22T13:30:02.890Z,62.28
2023-02-22T13:32:51.589Z,61.55
2023-02-22T13:35:43.262Z,62.32
2023-02-22T13:38:38.481Z,62.99
2023-02-22T13:41:20.724Z,63.19
2023-02-22T13:43:55.334Z,62.63
2023-02-22T13:46:44.752Z,62.77
2023-02-22T13:49:21.211Z,62.11
2023-02-22T13:51:49.387Z,63.16
2023-02-22T13:54:40.852Z,63.44
2023-02-22T13:57:23.009Z,62.98
2023-02-22T14:00:15.228Z,63.03
2023-02-22T14:02:57.164Z,63.10
2023-02-22T14:05:42.598Z,62.95
2023-02-22T14:08:36.755Z,62.79
2023-02-22T14:11:13.896Z,62.22
2023-02-22T14:13:53.811Z,61.66
2023-02-22T14:16:23.543Z,61.61
2023-02-22T14:19:02.155Z,62.58
2023-02-22T14:21:28.866Z,61.61
2023-02-22T14:24:08.126Z,61.74
2023-02-22T14:26:36.542Z,62.61
2023-02-22T14:29:09.160Z,62.34
2023-02-22T14:31:43.507Z,61.46
2023-02-22T14:34:11.976Z,62.57
2023-02-22T14:36:56.396Z,62.63
2023-02-22T14:39:33.195Z,61.92
2023-02-22T14:42:04.570Z,62.05
2023-02-22T14:44:40.084Z,62.98
2023-02-22T14:47:08.663Z,62.63
2023-02-22T14:49:43.241Z,62.11
2023-02-22T14:52:24.314Z,61.83
2023-02-22T14:55:04.501Z,62.50
2023-02-22T14:57:42.374Z,62.39
2023-02-22T15:00:23.263Z,62.54
2023-02-22T15:02:57.343Z,62.13
2023-02-22T15:05:24.205Z,61.20
2023-02-22T15:08:00.630Z,61.37
2023-02-22T15:10:32.288Z,61.40
2023-02-22T15:13:10.714Z,61.98
2023-02-22T15:15:47.542Z,61.91
2023-02-22T15:18:22.659Z,61.92
2023-02-22T15:20:56.180Z,61.73
2023-02-22T15:23:27.162Z,62.10
2023-02-22T15:25:54.192Z,61.98
2023-02-22T15:28:29.499Z,62.12
2023-02-22T15:31:15.307Z,61.71
2023-02-22T15:33:42.236Z,61.52
2023-02-22T15:36:14.438Z,62.16
2023-02-22T15:38:51.672Z,62.66
2023-02-22T15:41:28.726Z,61.60
2023-02-22T15:44:07.906Z,63.26
2023-02-22T15:46:40.730Z,62.77
2023-02-22T15:49:10.375Z,62.77
2023-02-22T15:51:39.158Z,62.01
2023-02-22T15:54:13.221Z,62.52
2023-02-22T15:56:51.636Z,62.30
2023-02-22T15:59:18.930Z,61.98
2023-02-22T16:01:47.320Z,63.41
2023-02-22T16:04:22.939Z,64.42
2023-02-22T16:06:52.336Z,64.44
2023-02-22T16:09:30.333Z,63.24
2023-02-22T16:12:27.582Z,63.08
2023-02-22T16:14:54.844Z,63.05
2023-02-22T16:17:24.929Z,63.77
2023-02-22T16:19:52.950Z,64.08
2023-02-22T16:22:36.367Z,64.06
2023-02-22T16:25:35.574Z,63.94
2023-02-22T16:28:09.825Z,64.68
2023-02-22T16:30:40.519Z,66.22
2023-02-22T16:33:13.930Z,65.35
2023-02-22T16:35:40.803Z,64.93
2023-02-22T16:38:17.029Z,66.68
2023-02-22T16:40:55.260Z,66.66
2023-02-22T16:43:24.879Z,65.99
2023-02-22T16:45:53.292Z,65.54
2023-02-22T16:48:22.551Z,65.12
2023-02-22T16:50:51.453Z,65.37
2023-02-22T16:53:21.561Z,65.57
2023-02-22T16:55:48.606Z,65.51
2023-02-22T16:58:16.512Z,65.59
2023-02-22T17:00:43.729Z,65.45
2023-02-22T17:03:15.264Z,65.66
2023-02-22T17:05:42.105Z,65.92
2023-02-22T17:08:08.917Z,65.75
2023-02-22T17:10:35.737Z,66.09
2023-02-22T17:13:16.198Z,66.00
2023-02-22T17:15:48.435Z,65.46
2023-02-22T17:18:16.768Z,65.57
2023-02-22T17:20:45.134Z,66.27
2023-02-22T17:23:12.457Z,65.83
2023-02-22T17:25:44.483Z,66.10
2023-02-22T17:28:11.761Z,65.89
2023-02-22T17:30:38.818Z,66.24
2023-02-22T17:33:07.643Z,65.95
2023-02-22T17:35:38.971Z,66.43
2023-02-22T17:38:10.105Z,67.55
2023-02-22T17:40:39.289Z,68.17
2023-02-22T17:43:08.885Z,68.44
2023-02-22T17:45:39.074Z,67.28
2023-02-22T17:48:06.203Z,66.79
2023-02-22T17:50:39.054Z,66.53
2023-02-22T17:53:06.466Z,66.42
2023-02-22T17:55:34.469Z,66.46
2023-02-22T17:58:01.252Z,66.89
2023-02-22T18:00:34.380Z,67.70
2023-02-22T18:03:03.958Z,67.44
2023-02-22T18:05:33.150Z,66.66
2023-02-22T18:08:00.150Z,66.92
2023-02-22T18:10:27.103Z,66.76
2023-02-22T18:12:54.103Z,67.36
2023-02-22T18:15:28.301Z,67.10
2023-02-22T18:17:56.073Z,67.11
2023-02-22T18:20:38.298Z,67.05
2023-02-22T18:23:09.320Z,67.70
2023-02-22T18:25:37.422Z,67.35
2023-02-22T18:28:06.447Z,67.51
2023-02-22T18:30:35.995Z,67.34
2023-02-22T18:33:03.895Z,66.82
2023-02-22T18:35:31.692Z,67.48
2023-02-22T18:37:58.529Z,67.42
2023-02-22T18:40:25.227Z,68.21
2023-02-22T18:42:52.006Z,68.39
2023-02-22T18:45:19.424Z,68.37
2023-02-22T18:47:46.217Z,68.04
2023-02-22T18:50:17.313Z,68.03
2023-02-22T18:52:47.469Z,67.55
2023-02-22T18:55:18.989Z,68.26
2023-02-22T18:57:46.423Z,68.01
2023-02-22T19:00:17.081Z,68.22
2023-02-22T19:02:46.783Z,68.43
2023-02-22T19:05:17.443Z,67.82
2023-02-22T19:07:44.994Z,67.30
2023-02-22T19:10:11.623Z,67.59
2023-02-22T19:12:38.413Z,68.15
2023-02-22T19:15:05.418Z,67.78
2023-02-22T19:17:32.777Z,68.55
2023-02-22T19:19:59.442Z,67.88
2023-02-22T19:22:26.765Z,67.98
2023-02-22T19:24:54.336Z,67.93
2023-02-22T19:27:21.771Z,67.87
2023-02-22T19:29:49.414Z,68.13
2023-02-22T19:32:17.637Z,67.83
2023-02-22T19:34:44.696Z,67.89
2023-02-22T19:37:13.256Z,67.97
2023-02-22T19:39:43.646Z,68.40
2023-02-22T19:42:10.540Z,68.60
2023-02-22T19:44:37.908Z,68.87
2023-02-22T19:47:09.347Z,68.57
2023-02-22T19:49:37.484Z,69.01
2023-02-22T19:52:06.689Z,68.75
2023-02-22T19:54:33.474Z,68.16
2023-02-22T19:57:00.732Z,68.80
2023-02-22T19:59:27.584Z,68.66
2023-02-22T20:01:54.984Z,68.65
2023-02-22T20:04:22.994Z,68.87
2023-02-22T20:06:54.475Z,68.48
2023-02-22T20:09:30.527Z,68.32
2023-02-22T20:11:57.507Z,68.40
2023-02-22T20:14:28.606Z,68.61
2023-02-22T20:16:56.990Z,68.35
2023-02-22T20:19:26.770Z,68.90
2023-02-22T20:21:57.876Z,68.57
2023-02-22T20:24:25.243Z,68.62
2023-02-22T20:26:55.820Z,68.53
2023-02-22T20:29:31.608Z,68.31
2023-02-22T20:32:03.417Z,67.83
2023-02-22T20:34:33.970Z,68.74
2023-02-22T20:37:01.125Z,69.29
2023-02-22T20:39:28.059Z,69.14
2023-02-22T20:41:54.838Z,70.14
2023-02-22T20:44:21.679Z,69.70
2023-02-22T20:46:48.967Z,69.59
2023-02-22T20:49:18.841Z,69.21
2023-02-22T20:51:46.561Z,69.02
2023-02-22T20:54:13.663Z,68.83
2023-02-22T20:56:42.690Z,69.20
2023-02-22T20:59:14.934Z,68.43
2023-02-22T21:01:42.307Z,68.90
2023-02-22T21:04:13.722Z,68.68
2023-02-22T21:06:40.904Z,68.90
2023-02-22T21:09:12.621Z,68.88
2023-02-22T21:11:40.201Z,68.73
2023-02-22T21:14:06.978Z,68.75
2023-02-22T21:16:36.066Z,69.05
2023-02-22T21:19:04.922Z,68.26
2023-02-22T21:21:32.140Z,68.48
2023-02-22T21:24:02.285Z,68.26
2023-02-22T21:26:33.802Z,68.53
2023-02-22T21:29:04.916Z,68.78
2023-02-22T21:31:32.727Z,69.16
2023-02-22T21:34:04.267Z,68.25
2023-02-22T21:36:32.115Z,68.13
2023-02-22T21:39:01.922Z,67.62
2023-02-22T21:41:29.994Z,67.75
2023-02-22T21:43:58.166Z,67.50
2023-02-22T21:46:26.384Z,69.05
2023-02-22T21:48:53.283Z,67.71
2023-02-22T21:51:31.704Z,69.07
2023-02-22T21:54:03.598Z,68.51
2023-02-22T21:56:34.398Z,67.58
2023-02-22T21:59:03.833Z,67.83
2023-02-22T22:01:36.808Z,67.55
2023-02-22T22:04:04.573Z,66.52
2023-02-22T22:06:33.319Z,67.02
2023-02-22T22:09:00.360Z,68.32
2023-02-22T22:11:27.652Z,67.62
2023-02-22T22:13:58.964Z,67.74
2023-02-22T22:16:33.212Z,67.52
2023-02-22T22:19:00.020Z,67.14
2023-02-22T22:21:26.732Z,69.08
2023-02-22T22:23:57.460Z,68.14
2023-02-22T22:26:25.290Z,67.78
2023-02-22T22:28:54.401Z,67.23
2023-02-22T22:31:23.659Z,67.56
2023-02-22T22:33:50.905Z,67.82
2023-02-22T22:36:19.780Z,68.27
2023-02-22T22:38:47.213Z,68.71
2023-02-22T22:41:15.854Z,68.46
2023-02-22T22:43:48.503Z,67.56
2023-02-22T22:46:17.192Z,67.67
2023-02-22T22:48:47.129Z,67.44
2023-02-22T22:51:18.508Z,67.54
2023-02-22T22:53:47.047Z,67.64
2023-02-22T22:56:17.519Z,66.90
2023-02-22T22:58:51.548Z,67.66
2023-02-22T23:01:20.749Z,67.84
2023-02-22T23:03:55.110Z,67.83
2023-02-22T23:06:25.083Z,68.29
2023-02-22T23:09:00.210Z,68.58
2023-02-22T23:11:33.726Z,67.38
2023-02-22T23:14:03.255Z,68.42
2023-02-22T23:16:32.300Z,69.93
2023-02-22T23:18:59.287Z,69.08
2023-02-22T23:21:25.965Z,68.09
2023-02-22T23:23:58.860Z,68.09
2023-02-22T23:26:26.954Z,67.68
2023-02-22T23:28:56.094Z,67.86
2023-02-22T23:31:23.876Z,68.95
2023-02-22T23:33:51.237Z,69.20
2023-02-22T23:36:18.823Z,68.94
2023-02-22T23:38:46.131Z,68.32
2023-02-22T23:41:16.603Z,67.80
2023-02-22T23:43:45.298Z,68.34
2023-02-22T23:46:14.212Z,69.32
2023-02-22T23:48:46.815Z,68.15
2023-02-22T23:51:16.020Z,67.59
2023-02-22T23:53:55.765Z,69.64
2023-02-22T23:56:27.063Z,70.03
2023-02-22T23:58:57.444Z,69.30
